Terminal Aerodrome Forecast
Issued by NWS Detroit/Pontiac, MI

Home | Current Version | Previous Version | Text Only | Print | Product List | Glossary On
Versions: 1 2 3 4 5 6 7 8 9 10 11 12 13 14 15 16 17 18 19 20 21 22 23 24 25 26 27 28 29
000
FTUS43 KDTX 300207 AAB
TAFDTW
TAF AMD
KDTW 300207Z 3002/0106 10005KT P6SM BKN035 OVC100
     FM300400 03004KT P6SM OVC022
     FM300900 33004KT 4SM BR BKN008 OVC016
     FM301300 26005KT P6SM BKN024
     FM301600 24007KT P6SM BKN040 PROB30 3020/3023 4SM TSRA OVC028CB
     FM010100 VRB04KT 6SM BR SCT060=

USA.gov is the U.S. government's official web portal to all federal, state and local government web resources and services.